Time;durP1;ratioP1;P1;durP2;ratioP2;P2;SDS_P1;SDS_P2;PMS_P1;PMS_P2;Temp;Humidity;BMP_temperature;BMP_pressure;BME280_temperature;BME280_humidity;BME280_pressure;Samples;Min_cycle;Max_cycle;Signal;HPM_P1;HPM_P2
2022/06/12 00:02:06;;;;;;;13.33;8.53;;;18.50;99.90;;;;;;5073054;28;20543;-81
2022/06/12 00:04:34;;;;;;;11.90;7.17;;;18.50;99.90;;;;;;5073729;28;20495;-82
2022/06/12 00:07:01;;;;;;;7.43;4.70;;;18.40;99.90;;;;;;5076867;28;20438;-81
2022/06/12 00:09:28;;;;;;;11.17;5.47;;;18.40;99.90;;;;;;5077165;28;20548;-82
2022/06/12 00:11:55;;;;;;;10.73;6.70;;;18.40;99.90;;;;;;5077042;28;20458;-80
2022/06/12 00:14:22;;;;;;;12.20;6.43;;;18.30;99.90;;;;;;5077003;28;20449;-81
2022/06/12 00:16:52;;;;;;;11.50;5.27;;;18.20;99.90;;;;;;5076738;28;21087;-81
2022/06/12 00:19:19;;;;;;;11.07;5.70;;;18.20;99.90;;;;;;5077429;28;20485;-80
2022/06/12 00:21:48;;;;;;;10.63;4.97;;;18.20;99.90;;;;;;5077205;28;20450;-82
2022/06/12 00:24:18;;;;;;;10.30;5.93;;;18.10;99.90;;;;;;5076636;28;20542;-80
2022/06/12 00:26:47;;;;;;;11.90;5.83;;;18.10;99.90;;;;;;5077643;28;20527;-82
2022/06/12 00:29:16;;;;;;;7.53;4.40;;;18.00;99.90;;;;;;5077116;28;20538;-81
2022/06/12 00:31:47;;;;;;;8.23;4.93;;;18.00;99.90;;;;;;5077223;28;20535;-81
2022/06/12 00:34:17;;;;;;;9.77;4.90;;;17.90;99.90;;;;;;5076941;28;20992;-81
2022/06/12 00:36:45;;;;;;;9.27;4.37;;;17.90;99.90;;;;;;5076878;28;20857;-80
2022/06/12 00:39:15;;;;;;;7.13;3.83;;;17.90;99.90;;;;;;5076128;28;20543;-79
2022/06/12 00:41:44;;;;;;;10.93;3.97;;;17.90;99.90;;;;;;5077430;28;20475;-79
2022/06/12 00:44:15;;;;;;;9.27;4.60;;;17.90;99.90;;;;;;5076585;28;20848;-80
2022/06/12 00:46:47;;;;;;;7.93;4.17;;;17.80;99.90;;;;;;5077569;28;20901;-79
2022/06/12 00:49:18;;;;;;;7.67;3.40;;;17.80;99.90;;;;;;5076842;28;21039;-79
2022/06/12 00:51:49;;;;;;;5.83;3.70;;;17.80;99.90;;;;;;5077339;28;20548;-80
2022/06/12 00:54:18;;;;;;;6.20;4.33;;;17.70;99.90;;;;;;5076902;28;20903;-79
2022/06/12 00:56:50;;;;;;;7.77;4.20;;;17.70;99.90;;;;;;5077018;28;20467;-79
2022/06/12 00:59:25;;;;;;;7.43;3.57;;;17.70;99.90;;;;;;5076499;28;20548;-80
2022/06/12 01:01:53;;;;;;;9.50;4.20;;;17.70;99.90;;;;;;5076287;28;20527;-80
2022/06/12 01:07:09;;;;;;;6.63;4.30;;;17.70;99.90;;;;;;5076320;28;20434;-80
2022/06/12 01:09:40;;;;;;;9.77;4.80;;;17.60;99.90;;;;;;5076568;28;20470;-80
2022/06/12 01:12:13;;;;;;;7.90;4.30;;;17.50;99.90;;;;;;5076956;28;20487;-79
2022/06/12 01:14:45;;;;;;;10.73;4.47;;;17.50;99.90;;;;;;5076514;28;20492;-80
2022/06/12 01:17:12;;;;;;;7.90;4.07;;;17.40;99.90;;;;;;5076810;28;20570;-80
2022/06/12 01:19:43;;;;;;;9.50;5.40;;;17.40;99.90;;;;;;5076322;28;20455;-81
2022/06/12 01:22:51;;;;;;;6.03;4.27;;;17.40;99.90;;;;;;5076624;28;20482;-80
2022/06/12 01:26:03;;;;;;;8.20;4.27;;;17.30;99.90;;;;;;5066931;28;20494;-80
2022/06/12 01:28:38;;;;;;;7.43;4.00;;;17.20;99.90;;;;;;5076549;28;20450;-81
2022/06/12 01:31:15;;;;;;;8.93;5.00;;;17.10;99.90;;;;;;5076986;28;20516;-80
2022/06/12 01:33:48;;;;;;;8.30;4.23;;;17.10;99.90;;;;;;5076798;28;20457;-80
2022/06/12 01:36:22;;;;;;;13.80;4.90;;;17.00;99.90;;;;;;5077917;28;20561;-79
2022/06/12 01:38:56;;;;;;;8.50;4.10;;;17.00;99.90;;;;;;5077186;28;20576;-81
2022/06/12 01:41:30;;;;;;;8.57;3.93;;;16.90;99.90;;;;;;5077152;28;20450;-81
2022/06/12 01:44:09;;;;;;;7.37;4.60;;;16.90;99.90;;;;;;5076988;28;20485;-79
2022/06/12 01:46:44;;;;;;;10.20;3.43;;;16.80;99.90;;;;;;5076076;28;20476;-79
2022/06/12 01:49:18;;;;;;;23.20;5.47;;;16.80;99.90;;;;;;5076119;28;20441;-80
2022/06/12 01:51:50;;;;;;;8.50;4.40;;;16.70;99.90;;;;;;5076029;28;20493;-80
2022/06/12 01:54:25;;;;;;;5.77;3.90;;;16.70;99.90;;;;;;5076326;28;20529;-79
2022/06/12 01:56:58;;;;;;;9.13;4.60;;;16.60;99.90;;;;;;5076379;28;20921;-78
2022/06/12 01:59:38;;;;;;;8.07;4.50;;;16.60;99.90;;;;;;5076902;28;20540;-81
2022/06/12 02:02:11;;;;;;;12.50;4.40;;;16.50;99.90;;;;;;5076349;28;20455;-79
2022/06/12 02:04:44;;;;;;;13.53;5.33;;;16.50;99.90;;;;;;5075609;28;20545;-80
2022/06/12 02:07:18;;;;;;;7.10;4.00;;;16.40;99.90;;;;;;5075845;28;20455;-81
2022/06/12 02:09:52;;;;;;;7.47;4.23;;;16.40;99.90;;;;;;5074990;28;20486;-79
2022/06/12 02:15:14;;;;;;;8.20;5.30;;;16.30;99.90;;;;;;5075235;28;20462;-81
2022/06/12 02:17:46;;;;;;;6.60;4.07;;;16.30;99.90;;;;;;5075581;28;20860;-79
2022/06/12 02:20:15;;;;;;;7.53;4.70;;;16.20;99.90;;;;;;5075765;28;20460;-81
2022/06/12 02:22:44;;;;;;;9.67;3.90;;;16.20;99.90;;;;;;5075147;28;20831;-79
2022/06/12 02:25:16;;;;;;;4.70;3.50;;;16.20;99.90;;;;;;5075219;28;20485;-80
2022/06/12 02:27:47;;;;;;;10.30;5.00;;;16.20;99.90;;;;;;5075024;28;20520;-77
2022/06/12 02:30:20;;;;;;;7.33;3.93;;;16.10;99.90;;;;;;5075179;28;20514;-80
2022/06/12 02:32:56;;;;;;;6.37;4.33;;;16.10;99.90;;;;;;5075214;28;20985;-79
2022/06/12 02:35:30;;;;;;;7.87;4.23;;;16.00;99.90;;;;;;5075203;28;20470;-79
2022/06/12 02:38:02;;;;;;;7.87;4.30;;;16.00;99.90;;;;;;5075804;28;21010;-79
2022/06/12 02:40:32;;;;;;;5.60;3.57;;;15.90;99.90;;;;;;5074666;28;20503;-80
2022/06/12 02:43:06;;;;;;;5.90;4.00;;;15.90;99.90;;;;;;5075495;28;20486;-79
2022/06/12 02:45:38;;;;;;;7.07;4.10;;;15.80;99.90;;;;;;5075488;28;20504;-79
2022/06/12 02:48:07;;;;;;;7.57;4.53;;;15.80;99.90;;;;;;5075439;28;20534;-79
2022/06/12 02:50:42;;;;;;;10.37;4.57;;;15.80;99.90;;;;;;5075597;28;20479;-78
2022/06/12 02:53:21;;;;;;;5.60;4.20;;;15.70;99.90;;;;;;5075459;28;20544;-78
2022/06/12 02:55:54;;;;;;;7.50;4.17;;;15.70;99.90;;;;;;5075166;28;20483;-79
2022/06/12 02:58:32;;;;;;;6.27;4.37;;;15.80;99.90;;;;;;5075132;28;20487;-79
2022/06/12 03:01:05;;;;;;;8.73;4.57;;;15.70;99.90;;;;;;5075147;28;20480;-78
2022/06/12 03:03:39;;;;;;;6.17;4.10;;;15.70;99.90;;;;;;5074690;28;20966;-79
2022/06/12 03:06:06;;;;;;;7.27;4.17;;;15.70;99.90;;;;;;5075136;28;20498;-78
2022/06/12 03:08:37;;;;;;;5.90;4.10;;;15.70;99.90;;;;;;5075104;28;20530;-79
2022/06/12 03:11:08;;;;;;;6.10;4.30;;;15.60;99.90;;;;;;5075073;28;20464;-79
2022/06/12 03:13:37;;;;;;;8.40;4.33;;;15.60;99.90;;;;;;5074740;28;20823;-78
2022/06/12 03:16:15;;;;;;;11.00;4.43;;;15.60;99.90;;;;;;5074136;28;20489;-79
2022/06/12 03:18:48;;;;;;;8.20;3.83;;;15.50;99.90;;;;;;5075323;28;20513;-78
2022/06/12 03:21:24;;;;;;;7.17;3.90;;;15.50;99.90;;;;;;5075454;28;20483;-81
2022/06/12 03:24:14;;;;;;;6.70;4.37;;;15.50;99.90;;;;;;5075391;28;20540;-80
2022/06/12 03:26:54;;;;;;;6.40;4.10;;;15.40;99.90;;;;;;5074851;28;20571;-79
2022/06/12 03:29:30;;;;;;;7.50;3.90;;;15.40;99.90;;;;;;5075716;28;20455;-79
2022/06/12 03:32:04;;;;;;;7.60;4.20;;;15.30;99.90;;;;;;5075391;28;20535;-79
2022/06/12 03:34:39;;;;;;;5.80;4.40;;;15.30;99.90;;;;;;5075317;28;20486;-79
2022/06/12 03:37:11;;;;;;;10.00;4.50;;;15.30;99.90;;;;;;5075842;28;20604;-78
2022/06/12 03:39:43;;;;;;;6.43;3.87;;;15.30;99.90;;;;;;5077284;28;21032;-78
2022/06/12 03:42:18;;;;;;;7.50;4.57;;;15.20;99.90;;;;;;5079747;28;20468;-79
2022/06/12 03:44:55;;;;;;;4.70;3.37;;;15.20;99.90;;;;;;5079239;28;20442;-78
2022/06/12 03:47:30;;;;;;;6.33;4.17;;;15.20;99.90;;;;;;5080015;28;20819;-80
2022/06/12 03:50:02;;;;;;;5.90;4.00;;;15.20;99.90;;;;;;5080026;28;20478;-80
2022/06/12 03:52:32;;;;;;;4.20;3.40;;;15.20;99.90;;;;;;5080267;28;20443;-79
2022/06/12 03:55:07;;;;;;;7.70;4.20;;;15.20;99.90;;;;;;5080329;28;20908;-79
2022/06/12 03:57:53;;;;;;;6.83;3.60;;;15.20;99.90;;;;;;5080801;28;20477;-79
2022/06/12 04:00:25;;;;;;;8.20;4.10;;;15.20;99.90;;;;;;5079778;28;20456;-80
2022/06/12 04:02:58;;;;;;;12.60;5.23;;;15.20;99.90;;;;;;5080606;28;20541;-81
2022/06/12 04:05:29;;;;;;;6.57;4.33;;;15.20;99.90;;;;;;5080354;28;20490;-81
2022/06/12 04:07:59;;;;;;;5.23;3.60;;;15.20;99.90;;;;;;5081106;28;20522;-80
2022/06/12 04:10:32;;;;;;;6.17;3.73;;;15.20;99.90;;;;;;5080716;28;20532;-80
2022/06/12 04:12:59;;;;;;;11.27;4.90;;;15.30;99.90;;;;;;5081155;28;20465;-80
2022/06/12 04:15:30;;;;;;;8.67;4.60;;;15.30;99.90;;;;;;5081860;28;20502;-80
2022/06/12 04:17:59;;;;;;;6.67;4.10;;;15.30;99.90;;;;;;5081347;28;20482;-82
2022/06/12 04:20:44;;;;;;;7.70;3.80;;;15.30;99.90;;;;;;5081481;28;20455;-82
2022/06/12 04:23:17;;;;;;;8.10;3.73;;;15.40;99.90;;;;;;5081340;28;20446;-82
2022/06/12 04:25:48;;;;;;;7.60;4.23;;;15.40;99.90;;;;;;5110094;22;20541;-78
2022/06/12 04:28:30;;;;;;;6.20;3.67;;;15.40;99.90;;;;;;5089046;28;20444;-80
2022/06/12 04:30:58;;;;;;;8.03;3.90;;;15.50;99.90;;;;;;5090452;28;20474;-79
2022/06/12 04:33:37;;;;;;;7.60;3.80;;;15.50;99.90;;;;;;5090532;28;20474;-79
2022/06/12 04:36:05;;;;;;;5.53;3.57;;;15.50;99.90;;;;;;5091250;28;20503;-79
2022/06/12 04:38:35;;;;;;;6.80;4.10;;;15.60;99.90;;;;;;5085979;28;20562;-79
2022/06/12 04:41:03;;;;;;;9.23;4.27;;;15.70;99.90;;;;;;5086910;28;20453;-78
2022/06/12 04:43:30;;;;;;;6.23;3.60;;;15.70;99.90;;;;;;5087797;28;20472;-80
2022/06/12 04:45:57;;;;;;;6.70;3.63;;;15.80;99.90;;;;;;5088551;28;20476;-79
2022/06/12 04:48:30;;;;;;;6.33;3.33;;;15.90;99.90;;;;;;5087587;28;20730;-78
2022/06/12 04:50:57;;;;;;;9.90;3.47;;;15.90;99.90;;;;;;5087082;28;20501;-79
2022/06/12 04:53:25;;;;;;;4.80;3.30;;;16.00;99.90;;;;;;5087267;28;20447;-79
2022/06/12 04:55:52;;;;;;;6.47;3.40;;;16.00;99.90;;;;;;5087958;28;20467;-79
2022/06/12 04:58:19;;;;;;;6.27;3.60;;;16.10;99.90;;;;;;5086829;28;20521;-79
2022/06/12 05:00:46;;;;;;;5.83;3.13;;;16.20;99.90;;;;;;5086054;28;20951;-78
2022/06/12 05:03:13;;;;;;;7.30;4.13;;;16.20;99.90;;;;;;5085964;28;20480;-78
2022/06/12 05:05:43;;;;;;;6.30;3.20;;;16.30;99.90;;;;;;5086313;28;20514;-80
2022/06/12 05:08:10;;;;;;;8.53;3.27;;;16.40;99.90;;;;;;5085503;28;20482;-80
2022/06/12 05:10:39;;;;;;;9.70;3.40;;;16.50;99.90;;;;;;5087007;28;20813;-78
2022/06/12 05:13:06;;;;;;;8.83;3.50;;;16.50;99.90;;;;;;5087565;28;20465;-79
2022/06/12 05:15:33;;;;;;;7.60;3.10;;;16.60;99.90;;;;;;5087943;28;20453;-79
2022/06/12 05:18:00;;;;;;;8.23;3.70;;;16.70;99.90;;;;;;5087232;28;20492;-79
2022/06/12 05:20:30;;;;;;;7.40;2.67;;;16.70;99.90;;;;;;5087395;28;20508;-78
2022/06/12 05:22:58;;;;;;;7.57;3.13;;;16.80;99.90;;;;;;5086663;28;20479;-80
2022/06/12 05:25:25;;;;;;;5.73;2.73;;;16.90;99.90;;;;;;5087256;28;20486;-80
2022/06/12 05:27:53;;;;;;;7.73;2.53;;;17.00;99.90;;;;;;5087949;28;20438;-80
2022/06/12 05:30:23;;;;;;;6.23;2.30;;;17.10;99.90;;;;;;5087355;28;20454;-80
2022/06/12 05:32:52;;;;;;;6.70;2.50;;;17.20;99.90;;;;;;5089676;28;20476;-80
2022/06/12 05:35:21;;;;;;;4.70;2.10;;;17.30;99.90;;;;;;5089571;28;20437;-80
2022/06/12 05:37:49;;;;;;;9.97;2.43;;;17.30;99.90;;;;;;5090717;28;20461;-80
2022/06/12 05:40:20;;;;;;;7.40;2.63;;;17.40;99.90;;;;;;5093231;28;20483;-81
2022/06/12 05:42:48;;;;;;;3.53;1.80;;;17.40;99.90;;;;;;5090242;28;20465;-79
2022/06/12 05:45:17;;;;;;;6.63;1.90;;;17.50;99.90;;;;;;5091654;28;20438;-79
2022/06/12 05:47:46;;;;;;;6.17;1.93;;;17.50;99.90;;;;;;5090935;28;20502;-79
2022/06/12 05:50:13;;;;;;;5.90;2.00;;;17.60;99.90;;;;;;5086253;28;20497;-79
2022/06/12 05:52:40;;;;;;;4.37;1.33;;;17.70;99.90;;;;;;5084848;28;20459;-81
2022/06/12 05:55:08;;;;;;;10.47;2.10;;;17.70;99.90;;;;;;5085641;28;20479;-78
2022/06/12 05:57:36;;;;;;;5.70;1.77;;;17.80;99.90;;;;;;5081192;28;20465;-78
2022/06/12 06:00:06;;;;;;;5.33;1.20;;;17.80;99.90;;;;;;5075133;28;20561;-78
2022/06/12 06:02:34;;;;;;;3.20;1.40;;;17.80;99.90;;;;;;5074426;28;20469;-78
2022/06/12 06:05:01;;;;;;;9.20;1.70;;;17.90;99.90;;;;;;5076609;28;20642;-80
2022/06/12 06:07:28;;;;;;;7.17;1.57;;;18.00;99.90;;;;;;5076785;28;20526;-78
2022/06/12 06:09:55;;;;;;;9.47;1.73;;;18.00;99.90;;;;;;5076467;28;20472;-78
2022/06/12 06:12:22;;;;;;;6.20;2.63;;;18.00;99.90;;;;;;5077032;28;20460;-77
2022/06/12 06:14:50;;;;;;;5.17;1.50;;;18.10;99.90;;;;;;5077140;28;20465;-78
2022/06/12 06:17:17;;;;;;;9.33;2.50;;;18.20;99.90;;;;;;5077217;28;21054;-78
2022/06/12 06:19:44;;;;;;;5.77;1.83;;;18.20;99.90;;;;;;5077610;28;20527;-78
2022/06/12 06:22:15;;;;;;;5.73;2.10;;;18.30;99.90;;;;;;5077358;28;20470;-79
2022/06/12 06:24:43;;;;;;;3.90;1.70;;;18.30;99.90;;;;;;5078699;28;20449;-78
2022/06/12 06:27:10;;;;;;;4.47;1.90;;;18.40;99.90;;;;;;5077899;28;20487;-78
2022/06/12 06:29:37;;;;;;;7.73;3.13;;;18.40;99.90;;;;;;5077761;28;20457;-78
2022/06/12 06:32:08;;;;;;;8.63;2.20;;;18.40;99.90;;;;;;5079414;28;20456;-78
2022/06/12 06:34:35;;;;;;;11.40;2.40;;;18.60;99.90;;;;;;5079634;28;20452;-78
2022/06/12 06:37:02;;;;;;;5.37;2.30;;;18.70;99.90;;;;;;5078756;28;20473;-78
2022/06/12 06:39:29;;;;;;;9.93;2.60;;;18.70;99.90;;;;;;5078377;28;20519;-77
2022/06/12 06:41:56;;;;;;;8.13;1.83;;;18.70;99.90;;;;;;5079322;28;20487;-78
2022/06/12 06:47:11;;;;;;;7.20;2.17;;;18.80;99.90;;;;;;5079292;28;20453;-79
2022/06/12 06:49:38;;;;;;;7.80;2.13;;;18.90;99.90;;;;;;5080456;28;20513;-78
2022/06/12 06:52:06;;;;;;;10.17;2.43;;;19.00;99.90;;;;;;5080124;28;20490;-78
2022/06/12 06:54:33;;;;;;;7.67;1.60;;;19.10;99.90;;;;;;5079560;28;20484;-78
2022/06/12 06:57:00;;;;;;;3.50;1.50;;;19.20;99.90;;;;;;5079786;28;20561;-79
2022/06/12 06:59:27;;;;;;;5.00;1.87;;;19.20;99.90;;;;;;5080032;28;20507;-79
2022/06/12 07:01:54;;;;;;;6.67;1.90;;;19.30;99.90;;;;;;5081339;28;20434;-78
2022/06/12 07:04:22;;;;;;;7.67;2.07;;;19.40;99.90;;;;;;5079806;28;20473;-78
2022/06/12 07:06:49;;;;;;;5.73;1.77;;;19.40;99.90;;;;;;5080289;28;20469;-78
2022/06/12 07:09:16;;;;;;;6.07;1.63;;;19.40;99.90;;;;;;5079713;28;20493;-78
2022/06/12 07:11:43;;;;;;;6.80;2.30;;;19.50;99.90;;;;;;5080669;28;20486;-80
2022/06/12 07:14:10;;;;;;;9.30;1.97;;;19.50;99.90;;;;;;5078669;28;20942;-78
2022/06/12 07:16:39;;;;;;;5.37;1.87;;;19.40;99.90;;;;;;5079354;28;20558;-78
2022/06/12 07:19:06;;;;;;;7.27;2.40;;;19.60;99.90;;;;;;5080100;28;20490;-79
2022/06/12 07:21:34;;;;;;;9.27;2.23;;;19.70;99.90;;;;;;5080801;28;20490;-79
2022/06/12 07:24:01;;;;;;;8.63;2.27;;;19.80;99.90;;;;;;5079506;28;20477;-79
2022/06/12 07:26:31;;;;;;;6.80;2.10;;;19.90;99.90;;;;;;5079067;28;20556;-80
2022/06/12 07:28:58;;;;;;;5.60;2.30;;;20.00;99.90;;;;;;5080654;28;20477;-79
2022/06/12 07:31:25;;;;;;;8.80;2.50;;;20.10;99.90;;;;;;5080725;28;20490;-80
2022/06/12 07:33:52;;;;;;;7.77;3.73;;;20.20;99.90;;;;;;5081312;28;20491;-80
2022/06/12 07:36:20;;;;;;;11.47;2.50;;;20.40;99.90;;;;;;5081564;28;20512;-79
2022/06/12 07:38:50;;;;;;;8.73;2.67;;;20.50;99.90;;;;;;5083489;28;20490;-79
2022/06/12 07:41:19;;;;;;;10.30;2.60;;;20.50;99.90;;;;;;5081914;28;20522;-78
2022/06/12 07:43:47;;;;;;;7.80;2.50;;;20.70;99.90;;;;;;5081216;28;20447;-79
2022/06/12 07:46:16;;;;;;;11.73;2.60;;;20.60;99.90;;;;;;5088011;28;20474;-80
2022/06/12 07:48:44;;;;;;;5.30;2.13;;;20.50;99.90;;;;;;5087546;28;20446;-79
2022/06/12 07:51:13;;;;;;;9.43;2.33;;;20.80;99.90;;;;;;5083626;28;20450;-81
2022/06/12 07:53:41;;;;;;;6.33;2.00;;;21.00;99.90;;;;;;5081952;28;20443;-80
2022/06/12 07:56:10;;;;;;;5.40;1.80;;;21.10;99.90;;;;;;5082232;28;20538;-80
2022/06/12 07:58:40;;;;;;;8.37;2.20;;;21.10;99.90;;;;;;5072449;28;20443;-76
2022/06/12 08:01:09;;;;;;;6.20;2.40;;;21.30;99.90;;;;;;5073527;28;20521;-78
2022/06/12 08:03:36;;;;;;;6.23;2.20;;;21.30;99.90;;;;;;5075490;28;20490;-78
2022/06/12 08:06:04;;;;;;;6.93;2.20;;;21.30;99.90;;;;;;5076607;28;20557;-78
2022/06/12 08:08:31;;;;;;;9.43;2.50;;;21.30;99.90;;;;;;5075978;28;20491;-78
2022/06/12 08:10:58;;;;;;;9.67;2.63;;;21.40;99.90;;;;;;5075887;28;20483;-79
2022/06/12 08:13:26;;;;;;;5.03;2.10;;;21.50;99.90;;;;;;5075318;28;20822;-78
2022/06/12 08:15:54;;;;;;;6.10;1.90;;;21.60;99.90;;;;;;5075423;28;20542;-77
2022/06/12 08:18:23;;;;;;;8.80;2.80;;;21.60;99.90;;;;;;5075966;28;20541;-77
2022/06/12 08:20:52;;;;;;;5.83;2.03;;;21.70;99.90;;;;;;5077951;28;20502;-80
2022/06/12 08:23:29;;;;;;;5.30;1.77;;;22.00;99.90;;;;;;5080929;28;20453;-78
2022/06/12 08:25:59;;;;;;;7.07;2.50;;;22.10;99.90;;;;;;5074812;28;20486;-79
2022/06/12 08:28:29;;;;;;;5.20;2.20;;;22.20;99.90;;;;;;5077553;28;20475;-80
2022/06/12 08:30:57;;;;;;;9.17;2.00;;;22.40;99.90;;;;;;5076836;28;20482;-79
2022/06/12 08:33:25;;;;;;;9.40;2.67;;;22.60;99.90;;;;;;5080444;28;20549;-79
2022/06/12 08:35:52;;;;;;;7.60;1.80;;;22.70;99.90;;;;;;5082352;28;20549;-79
2022/06/12 08:38:20;;;;;;;5.03;1.93;;;22.80;99.90;;;;;;5085545;28;20462;-79
2022/06/12 08:40:54;;;;;;;4.87;1.70;;;23.10;99.90;;;;;;5082004;28;20486;-80
2022/06/12 08:43:31;;;;;;;4.67;1.63;;;23.30;99.90;;;;;;5082229;28;20453;-79
2022/06/12 08:46:02;;;;;;;10.27;2.00;;;23.40;99.90;;;;;;5082195;28;20502;-79
2022/06/12 08:48:35;;;;;;;7.47;2.20;;;23.40;99.90;;;;;;5082709;28;20490;-79
2022/06/12 08:51:07;;;;;;;6.13;1.30;;;23.40;99.90;;;;;;5082660;28;20450;-78
2022/06/12 08:53:42;;;;;;;4.40;1.60;;;23.60;99.90;;;;;;5080354;28;20546;-78
2022/06/12 08:56:14;;;;;;;4.37;1.67;;;23.90;99.90;;;;;;5081845;28;20477;-79
2022/06/12 08:58:50;;;;;;;4.60;1.67;;;23.90;99.90;;;;;;5086579;28;20478;-80
2022/06/12 09:01:17;;;;;;;3.60;1.20;;;24.20;99.90;;;;;;5084961;28;21071;-79
2022/06/12 09:03:49;;;;;;;5.10;1.30;;;24.10;99.90;;;;;;5083735;28;20451;-80
2022/06/12 09:06:26;;;;;;;3.73;1.17;;;24.30;99.90;;;;;;5083414;28;20527;-78
2022/06/12 09:09:01;;;;;;;5.13;1.43;;;24.60;99.90;;;;;;5084281;28;20469;-78
2022/06/12 09:11:37;;;;;;;5.33;2.40;;;24.70;99.90;;;;;;5083021;28;20466;-78
2022/06/12 09:14:12;;;;;;;2.37;1.00;;;24.60;99.90;;;;;;5084785;28;20455;-83
2022/06/12 09:16:47;;;;;;;2.60;1.10;;;24.80;99.90;;;;;;5087814;28;21008;-81
2022/06/12 09:19:25;;;;;;;2.93;1.10;;;24.90;99.90;;;;;;5084411;28;20469;-80
2022/06/12 09:22:02;;;;;;;6.23;1.40;;;24.90;99.90;;;;;;5084003;28;20525;-79
2022/06/12 09:24:41;;;;;;;3.30;0.90;;;25.00;99.90;;;;;;5084724;28;20455;-81
2022/06/12 09:27:17;;;;;;;3.00;0.90;;;25.00;99.90;;;;;;5088149;28;20474;-80
2022/06/12 09:29:53;;;;;;;3.60;1.00;;;25.10;99.90;;;;;;5089518;28;20541;-81
2022/06/12 09:32:30;;;;;;;3.30;1.30;;;25.10;99.90;;;;;;5084530;28;20462;-78
2022/06/12 09:35:09;;;;;;;5.73;1.23;;;25.40;99.90;;;;;;5076887;28;20478;-78
2022/06/12 09:40:40;;;;;;;3.80;1.10;;;25.40;99.90;;;;;;5068810;28;20469;-79
2022/06/12 09:43:18;;;;;;;3.70;1.07;;;25.40;99.90;;;;;;5080853;28;20466;-78
2022/06/12 09:45:59;;;;;;;2.20;0.90;;;25.70;99.90;;;;;;5084790;28;20501;-78
2022/06/12 09:48:40;;;;;;;4.97;1.47;;;25.90;99.90;;;;;;5084002;28;20473;-78
2022/06/12 09:51:17;;;;;;;3.57;1.37;;;26.00;99.90;;;;;;5088288;28;20447;-78
2022/06/12 09:54:14;;;;;;;6.03;1.70;;;26.10;99.90;;;;;;5082582;28;20455;-79
2022/06/12 09:56:45;;;;;;;5.57;1.60;;;26.00;99.90;;;;;;5068704;28;20903;-78
2022/06/12 09:59:18;;;;;;;4.70;1.30;;;25.80;99.90;;;;;;5080109;28;20453;-80
2022/06/12 10:01:50;;;;;;;3.37;1.50;;;25.80;99.90;;;;;;5079521;28;20459;-80
2022/06/12 10:04:22;;;;;;;5.83;2.10;;;26.10;99.90;;;;;;5080238;28;20510;-78
2022/06/12 10:06:53;;;;;;;5.63;1.60;;;26.30;99.90;;;;;;5082020;28;20490;-79
2022/06/12 10:09:24;;;;;;;3.10;1.30;;;26.60;99.90;;;;;;5081205;28;20454;-78
2022/06/12 10:11:55;;;;;;;4.83;1.60;;;26.70;99.90;;;;;;5081473;28;20501;-79
2022/06/12 10:14:28;;;;;;;5.33;1.60;;;27.00;99.90;;;;;;5078109;28;20451;-77
2022/06/12 10:16:59;;;;;;;6.40;1.80;;;26.90;99.90;;;;;;5079604;28;20475;-79
2022/06/12 10:19:34;;;;;;;6.53;2.00;;;27.30;99.90;;;;;;5079489;28;20478;-78
2022/06/12 10:22:04;;;;;;;6.10;1.60;;;27.50;99.90;;;;;;5080145;28;20450;-78
2022/06/12 10:24:31;;;;;;;4.70;1.47;;;27.50;99.90;;;;;;5078195;28;20882;-78
2022/06/12 10:27:00;;;;;;;7.50;1.87;;;27.40;99.90;;;;;;5103354;22;21903;-79
2022/06/12 10:29:29;;;;;;;5.03;1.43;;;27.30;99.90;;;;;;5074078;28;20443;-80
2022/06/12 10:32:01;;;;;;;9.97;2.03;;;27.70;99.90;;;;;;5074701;28;20468;-79
2022/06/12 10:34:30;;;;;;;5.87;1.53;;;27.60;99.90;;;;;;5074417;28;20534;-81
2022/06/12 10:37:08;;;;;;;6.77;1.57;;;27.70;99.90;;;;;;5074979;28;20546;-79
2022/06/12 10:39:35;;;;;;;7.10;1.77;;;27.80;99.90;;;;;;5074213;28;20521;-78
2022/06/12 10:42:06;;;;;;;7.53;1.80;;;27.90;98.90;;;;;;5076121;28;20469;-79
2022/06/12 10:44:39;;;;;;;6.10;1.87;;;27.80;97.10;;;;;;5074732;28;20536;-78
2022/06/12 10:47:20;;;;;;;6.80;1.53;;;28.10;99.90;;;;;;5075416;28;20470;-79
2022/06/12 10:49:47;;;;;;;5.87;1.90;;;28.60;99.90;;;;;;5073529;28;20958;-79
2022/06/12 10:52:18;;;;;;;4.47;1.40;;;28.50;99.90;;;;;;5075539;28;20453;-79
2022/06/12 10:54:45;;;;;;;4.97;1.40;;;28.50;99.90;;;;;;5074379;28;20489;-78
2022/06/12 10:57:30;;;;;;;5.43;2.13;;;28.20;99.90;;;;;;5075474;28;20467;-79
2022/06/12 11:00:05;;;;;;;5.30;1.33;;;27.60;99.60;;;;;;5074586;28;20500;-78
2022/06/12 11:03:02;;;;;;;7.37;1.60;;;27.80;99.90;;;;;;5075969;28;20469;-81
2022/06/12 11:05:45;;;;;;;4.53;1.60;;;27.90;99.90;;;;;;5069090;28;20451;-78
2022/06/12 11:08:36;;;;;;;4.83;1.90;;;28.20;99.60;;;;;;5073955;28;20466;-79
2022/06/12 11:11:11;;;;;;;4.77;1.80;;;28.40;99.90;;;;;;5074049;28;20455;-80
2022/06/12 11:13:58;;;;;;;5.37;1.70;;;28.80;99.90;;;;;;5074888;28;20525;-79
2022/06/12 11:16:42;;;;;;;4.47;1.50;;;28.80;99.90;;;;;;5084163;28;20864;-80
2022/06/12 11:19:27;;;;;;;4.27;1.63;;;28.60;98.70;;;;;;5084661;28;20493;-80
2022/06/12 11:22:02;;;;;;;4.70;1.50;;;28.00;99.60;;;;;;5080651;28;21006;-80
2022/06/12 11:24:35;;;;;;;5.03;1.63;;;28.20;99.70;;;;;;5082667;28;20485;-78
2022/06/12 11:27:29;;;;;;;6.77;2.60;;;27.90;95.30;;;;;;5083054;28;20517;-79
2022/06/12 11:30:26;;;;;;;4.33;1.60;;;27.60;99.90;;;;;;5083219;28;20475;-79
2022/06/12 11:33:18;;;;;;;6.00;2.37;;;28.20;99.90;;;;;;5072812;28;20531;-79
2022/06/12 11:35:52;;;;;;;7.47;1.90;;;28.60;97.70;;;;;;5081289;28;20494;-78
2022/06/12 11:38:43;;;;;;;5.70;1.60;;;29.00;94.60;;;;;;5084246;28;20492;-79
2022/06/12 11:41:22;;;;;;;4.30;1.70;;;29.10;99.90;;;;;;5081229;28;20525;-78
2022/06/12 11:44:01;;;;;;;5.87;1.63;;;29.00;99.90;;;;;;5083634;28;20848;-79
2022/06/12 11:46:36;;;;;;;4.63;1.40;;;29.40;97.40;;;;;;5083118;28;20467;-79
2022/06/12 11:49:22;;;;;;;9.13;1.80;;;29.80;95.80;;;;;;5085541;28;20470;-78
2022/06/12 11:52:02;;;;;;;3.53;1.43;;;29.80;95.70;;;;;;5080956;28;20475;-80
2022/06/12 11:54:44;;;;;;;5.03;2.00;;;30.00;90.50;;;;;;5082592;28;20479;-78
2022/06/12 11:57:18;;;;;;;5.50;1.70;;;30.10;91.30;;;;;;5084594;28;20463;-82
2022/06/12 12:00:00;;;;;;;4.90;1.90;;;30.00;89.00;;;;;;5083570;28;20434;-80
2022/06/12 12:02:57;;;;;;;6.73;2.37;;;29.80;92.70;;;;;;5087352;28;20477;-78
2022/06/12 12:05:42;;;;;;;5.70;2.27;;;30.00;93.90;;;;;;5081681;28;20449;-81
2022/06/12 12:08:26;;;;;;;6.27;2.50;;;30.40;99.90;;;;;;5079733;28;20519;-79
2022/06/12 12:11:01;;;;;;;8.93;3.10;;;30.90;94.80;;;;;;5079599;28;20956;-81
2022/06/12 12:13:32;;;;;;;11.37;2.87;;;30.10;92.40;;;;;;5078987;28;20442;-82
2022/06/12 12:16:02;;;;;;;3.70;1.87;;;28.90;91.60;;;;;;5078862;28;20467;-80
2022/06/12 12:18:38;;;;;;;5.03;1.97;;;28.10;92.80;;;;;;5079540;28;20475;-78
2022/06/12 12:21:10;;;;;;;6.90;2.10;;;28.20;95.90;;;;;;5078895;28;20528;-80
2022/06/12 12:23:43;;;;;;;7.80;2.50;;;27.80;94.50;;;;;;5078813;28;20446;-80
2022/06/12 12:26:21;;;;;;;6.47;2.23;;;27.40;95.50;;;;;;5079041;28;20516;-80
2022/06/12 12:28:51;;;;;;;6.47;2.33;;;27.30;96.90;;;;;;5082365;28;20482;-80
2022/06/12 12:31:19;;;;;;;5.47;2.50;;;28.00;98.90;;;;;;5087511;28;20443;-80
2022/06/12 12:33:49;;;;;;;4.90;2.40;;;28.10;96.80;;;;;;5084845;28;20582;-79
2022/06/12 12:42:26;;;;;;;12.03;2.27;;;29.20;99.90;;;;;;5078268;28;20481;-79
2022/06/12 12:44:54;;;;;;;6.20;2.00;;;29.80;99.20;;;;;;5079906;28;20458;-80
2022/06/12 12:47:24;;;;;;;7.03;2.17;;;30.40;99.90;;;;;;5079464;28;20562;-81
2022/06/12 12:50:03;;;;;;;6.90;1.80;;;29.90;96.60;;;;;;5079301;28;20485;-81
2022/06/12 12:52:41;;;;;;;6.27;2.33;;;29.80;96.50;;;;;;5078890;28;20446;-80
2022/06/12 12:55:23;;;;;;;8.17;2.50;;;29.90;98.30;;;;;;5079632;28;20477;-80
2022/06/12 12:57:51;;;;;;;5.07;2.10;;;30.30;98.70;;;;;;5079584;28;20475;-81
2022/06/12 13:00:31;;;;;;;6.60;2.57;;;30.70;97.30;;;;;;5079904;28;20458;-79
2022/06/12 13:03:01;;;;;;;6.23;1.80;;;30.60;91.90;;;;;;5078554;28;20472;-81
2022/06/12 13:05:59;;;;;;;10.17;3.67;;;30.80;99.70;;;;;;5079557;28;20480;-81
2022/06/12 13:09:05;;;;;;;6.13;1.63;;;30.60;98.00;;;;;;5081292;28;20507;-79
2022/06/12 13:11:46;;;;;;;5.30;1.87;;;31.20;99.90;;;;;;5076623;28;20474;-83
2022/06/12 13:14:39;;;;;;;5.10;2.20;;;31.90;95.30;;;;;;5079648;28;20518;-82
2022/06/12 13:17:28;;;;;;;5.53;1.53;;;32.30;92.00;;;;;;5080270;28;20498;-80
2022/06/12 13:20:30;;;;;;;6.40;2.70;;;31.70;88.40;;;;;;5079775;28;20457;-79
2022/06/12 13:23:10;;;;;;;8.60;2.80;;;31.00;88.80;;;;;;5071044;28;21032;-81
2022/06/12 13:25:41;;;;;;;7.07;1.87;;;31.20;91.00;;;;;;5078849;28;20518;-80
2022/06/12 13:28:21;;;;;;;4.77;1.83;;;31.50;91.00;;;;;;5079375;28;20515;-81
2022/06/12 13:30:48;;;;;;;5.30;2.30;;;31.60;92.10;;;;;;5078916;28;20463;-80
2022/06/12 13:33:20;;;;;;;4.60;2.20;;;31.90;83.50;;;;;;5078676;28;20463;-80